sensor_id;sensor_type;location;lat;lon;timestamp;P1;durP1;ratioP1;P2;durP2;ratioP2
12758;SDS011;20944;47.048;15.390;2023-08-07T00:00:31;0.00;;;0.00;;
12758;SDS011;20944;47.048;15.390;2023-08-07T00:03:01;1.00;;;0.00;;
12758;SDS011;20944;47.048;15.390;2023-08-07T00:05:29;0.00;;;0.00;;
12758;SDS011;20944;47.048;15.390;2023-08-07T00:07:57;0.00;;;0.00;;
12758;SDS011;20944;47.048;15.390;2023-08-07T00:10:26;0.00;;;0.00;;
12758;SDS011;20944;47.048;15.390;2023-08-07T00:12:54;0.43;;;0.00;;
12758;SDS011;20944;47.048;15.390;2023-08-07T00:15:22;0.00;;;0.00;;
12758;SDS011;20944;47.048;15.390;2023-08-07T00:17:50;0.00;;;0.00;;
12758;SDS011;20944;47.048;15.390;2023-08-07T00:20:20;0.00;;;0.00;;
12758;SDS011;20944;47.048;15.390;2023-08-07T00:22:49;3.13;;;0.00;;
12758;SDS011;20944;47.048;15.390;2023-08-07T00:25:17;0.00;;;0.00;;
12758;SDS011;20944;47.048;15.390;2023-08-07T00:27:45;0.00;;;0.00;;
12758;SDS011;20944;47.048;15.390;2023-08-07T00:30:14;0.00;;;0.00;;
12758;SDS011;20944;47.048;15.390;2023-08-07T00:32:42;0.00;;;0.00;;
12758;SDS011;20944;47.048;15.390;2023-08-07T00:35:11;0.00;;;0.00;;
12758;SDS011;20944;47.048;15.390;2023-08-07T00:37:40;0.00;;;0.00;;
12758;SDS011;20944;47.048;15.390;2023-08-07T00:40:09;0.00;;;0.00;;
12758;SDS011;20944;47.048;15.390;2023-08-07T00:42:38;0.20;;;0.00;;
12758;SDS011;20944;47.048;15.390;2023-08-07T00:45:06;0.00;;;0.00;;
12758;SDS011;20944;47.048;15.390;2023-08-07T00:47:35;0.00;;;0.00;;
12758;SDS011;20944;47.048;15.390;2023-08-07T00:50:04;1.88;;;0.10;;
12758;SDS011;20944;47.048;15.390;2023-08-07T00:52:34;0.00;;;0.00;;
12758;SDS011;20944;47.048;15.390;2023-08-07T00:55:05;0.00;;;0.00;;
12758;SDS011;20944;47.048;15.390;2023-08-07T00:57:33;0.83;;;0.00;;
12758;SDS011;20944;47.048;15.390;2023-08-07T01:00:02;0.00;;;0.00;;
12758;SDS011;20944;47.048;15.390;2023-08-07T01:02:30;0.00;;;0.00;;
12758;SDS011;20944;47.048;15.390;2023-08-07T01:04:59;0.00;;;0.00;;
12758;SDS011;20944;47.048;15.390;2023-08-07T01:07:27;0.00;;;0.00;;
12758;SDS011;20944;47.048;15.390;2023-08-07T01:09:56;0.00;;;0.00;;
12758;SDS011;20944;47.048;15.390;2023-08-07T01:12:31;0.00;;;0.00;;
12758;SDS011;20944;47.048;15.390;2023-08-07T01:15:05;0.00;;;0.00;;
12758;SDS011;20944;47.048;15.390;2023-08-07T01:17:40;0.00;;;0.00;;
12758;SDS011;20944;47.048;15.390;2023-08-07T01:20:11;0.00;;;0.00;;
12758;SDS011;20944;47.048;15.390;2023-08-07T01:22:41;0.00;;;0.00;;
12758;SDS011;20944;47.048;15.390;2023-08-07T01:25:09;2.10;;;0.10;;
12758;SDS011;20944;47.048;15.390;2023-08-07T01:27:39;0.00;;;0.00;;
12758;SDS011;20944;47.048;15.390;2023-08-07T01:30:14;0.00;;;0.00;;
12758;SDS011;20944;47.048;15.390;2023-08-07T01:32:48;0.00;;;0.00;;
12758;SDS011;20944;47.048;15.390;2023-08-07T01:35:23;0.00;;;0.00;;
12758;SDS011;20944;47.048;15.390;2023-08-07T01:37:55;0.83;;;0.00;;
12758;SDS011;20944;47.048;15.390;2023-08-07T01:40:24;0.00;;;0.00;;
12758;SDS011;20944;47.048;15.390;2023-08-07T01:42:54;0.10;;;0.00;;
12758;SDS011;20944;47.048;15.390;2023-08-07T01:45:23;2.10;;;0.00;;
12758;SDS011;20944;47.048;15.390;2023-08-07T01:47:52;0.00;;;0.00;;
12758;SDS011;20944;47.048;15.390;2023-08-07T01:50:21;0.00;;;0.00;;
12758;SDS011;20944;47.048;15.390;2023-08-07T01:52:49;0.00;;;0.00;;
12758;SDS011;20944;47.048;15.390;2023-08-07T01:55:20;2.83;;;0.00;;
12758;SDS011;20944;47.048;15.390;2023-08-07T01:57:49;0.30;;;0.00;;
12758;SDS011;20944;47.048;15.390;2023-08-07T02:00:17;1.30;;;0.00;;
12758;SDS011;20944;47.048;15.390;2023-08-07T02:02:46;0.10;;;0.00;;
12758;SDS011;20944;47.048;15.390;2023-08-07T02:05:14;0.00;;;0.00;;
12758;SDS011;20944;47.048;15.390;2023-08-07T02:07:43;0.00;;;0.00;;
12758;SDS011;20944;47.048;15.390;2023-08-07T02:10:11;1.30;;;0.00;;
12758;SDS011;20944;47.048;15.390;2023-08-07T02:12:41;0.00;;;0.00;;
12758;SDS011;20944;47.048;15.390;2023-08-07T02:15:09;0.00;;;0.00;;
12758;SDS011;20944;47.048;15.390;2023-08-07T02:17:37;0.20;;;0.00;;
12758;SDS011;20944;47.048;15.390;2023-08-07T02:20:08;0.33;;;0.10;;
12758;SDS011;20944;47.048;15.390;2023-08-07T02:22:37;0.00;;;0.00;;
12758;SDS011;20944;47.048;15.390;2023-08-07T02:25:06;0.00;;;0.00;;
12758;SDS011;20944;47.048;15.390;2023-08-07T02:27:34;0.50;;;0.00;;
12758;SDS011;20944;47.048;15.390;2023-08-07T02:30:05;0.00;;;0.00;;
12758;SDS011;20944;47.048;15.390;2023-08-07T02:32:33;0.00;;;0.00;;
12758;SDS011;20944;47.048;15.390;2023-08-07T02:35:02;0.00;;;0.00;;
12758;SDS011;20944;47.048;15.390;2023-08-07T02:37:31;0.43;;;0.00;;
12758;SDS011;20944;47.048;15.390;2023-08-07T02:39:59;3.20;;;0.10;;
12758;SDS011;20944;47.048;15.390;2023-08-07T02:42:27;0.00;;;0.00;;
12758;SDS011;20944;47.048;15.390;2023-08-07T02:44:55;0.00;;;0.00;;
12758;SDS011;20944;47.048;15.390;2023-08-07T02:47:25;0.00;;;0.00;;
12758;SDS011;20944;47.048;15.390;2023-08-07T02:49:53;0.00;;;0.00;;
12758;SDS011;20944;47.048;15.390;2023-08-07T02:52:21;0.27;;;0.00;;
12758;SDS011;20944;47.048;15.390;2023-08-07T02:54:49;0.07;;;0.07;;
12758;SDS011;20944;47.048;15.390;2023-08-07T02:57:18;0.83;;;0.00;;
12758;SDS011;20944;47.048;15.390;2023-08-07T02:59:46;0.10;;;0.10;;
12758;SDS011;20944;47.048;15.390;2023-08-07T03:02:14;0.30;;;0.00;;
12758;SDS011;20944;47.048;15.390;2023-08-07T03:04:44;0.00;;;0.00;;
12758;SDS011;20944;47.048;15.390;2023-08-07T03:07:12;0.00;;;0.00;;
12758;SDS011;20944;47.048;15.390;2023-08-07T03:09:40;0.00;;;0.00;;
12758;SDS011;20944;47.048;15.390;2023-08-07T03:12:08;0.00;;;0.00;;
12758;SDS011;20944;47.048;15.390;2023-08-07T03:14:37;0.00;;;0.00;;
12758;SDS011;20944;47.048;15.390;2023-08-07T03:17:05;2.57;;;0.20;;
12758;SDS011;20944;47.048;15.390;2023-08-07T03:19:33;0.00;;;0.00;;
12758;SDS011;20944;47.048;15.390;2023-08-07T03:22:03;1.30;;;0.00;;
12758;SDS011;20944;47.048;15.390;2023-08-07T03:24:31;0.10;;;0.10;;
12758;SDS011;20944;47.048;15.390;2023-08-07T03:27:00;0.00;;;0.00;;
12758;SDS011;20944;47.048;15.390;2023-08-07T03:29:28;1.70;;;0.00;;
12758;SDS011;20944;47.048;15.390;2023-08-07T03:31:56;0.00;;;0.00;;
12758;SDS011;20944;47.048;15.390;2023-08-07T03:34:24;0.43;;;0.00;;
12758;SDS011;20944;47.048;15.390;2023-08-07T03:36:53;0.93;;;0.10;;
12758;SDS011;20944;47.048;15.390;2023-08-07T03:39:23;0.40;;;0.10;;
12758;SDS011;20944;47.048;15.390;2023-08-07T03:41:52;0.00;;;0.00;;
12758;SDS011;20944;47.048;15.390;2023-08-07T03:44:20;0.00;;;0.00;;
12758;SDS011;20944;47.048;15.390;2023-08-07T03:46:48;0.00;;;0.00;;
12758;SDS011;20944;47.048;15.390;2023-08-07T03:49:17;0.10;;;0.00;;
12758;SDS011;20944;47.048;15.390;2023-08-07T03:51:45;2.07;;;0.30;;
12758;SDS011;20944;47.048;15.390;2023-08-07T03:54:13;0.00;;;0.00;;
12758;SDS011;20944;47.048;15.390;2023-08-07T03:56:43;0.10;;;0.00;;
12758;SDS011;20944;47.048;15.390;2023-08-07T03:59:13;0.00;;;0.00;;
12758;SDS011;20944;47.048;15.390;2023-08-07T04:01:41;0.00;;;0.00;;
12758;SDS011;20944;47.048;15.390;2023-08-07T04:04:09;0.00;;;0.00;;
12758;SDS011;20944;47.048;15.390;2023-08-07T04:06:37;0.00;;;0.00;;
12758;SDS011;20944;47.048;15.390;2023-08-07T04:09:06;1.40;;;0.20;;
12758;SDS011;20944;47.048;15.390;2023-08-07T04:11:36;0.17;;;0.07;;
12758;SDS011;20944;47.048;15.390;2023-08-07T04:14:06;0.10;;;0.10;;
12758;SDS011;20944;47.048;15.390;2023-08-07T04:16:34;0.00;;;0.00;;
12758;SDS011;20944;47.048;15.390;2023-08-07T04:19:04;0.10;;;0.00;;
12758;SDS011;20944;47.048;15.390;2023-08-07T04:21:33;0.00;;;0.00;;
12758;SDS011;20944;47.048;15.390;2023-08-07T04:24:02;0.00;;;0.00;;
12758;SDS011;20944;47.048;15.390;2023-08-07T04:26:36;0.10;;;0.10;;
12758;SDS011;20944;47.048;15.390;2023-08-07T04:29:06;0.83;;;0.20;;
12758;SDS011;20944;47.048;15.390;2023-08-07T04:31:35;0.40;;;0.10;;
12758;SDS011;20944;47.048;15.390;2023-08-07T04:34:03;0.00;;;0.00;;
12758;SDS011;20944;47.048;15.390;2023-08-07T04:36:31;0.07;;;0.07;;
12758;SDS011;20944;47.048;15.390;2023-08-07T04:39:01;0.10;;;0.10;;
12758;SDS011;20944;47.048;15.390;2023-08-07T04:41:30;0.70;;;0.10;;
12758;SDS011;20944;47.048;15.390;2023-08-07T04:43:58;0.47;;;0.10;;
12758;SDS011;20944;47.048;15.390;2023-08-07T04:46:27;0.03;;;0.00;;
12758;SDS011;20944;47.048;15.390;2023-08-07T04:48:56;0.00;;;0.00;;
12758;SDS011;20944;47.048;15.390;2023-08-07T04:51:25;0.13;;;0.00;;
12758;SDS011;20944;47.048;15.390;2023-08-07T04:53:57;0.10;;;0.10;;
12758;SDS011;20944;47.048;15.390;2023-08-07T04:56:25;1.43;;;0.10;;
12758;SDS011;20944;47.048;15.390;2023-08-07T04:58:53;0.40;;;0.10;;
12758;SDS011;20944;47.048;15.390;2023-08-07T05:01:21;0.10;;;0.07;;
12758;SDS011;20944;47.048;15.390;2023-08-07T05:03:51;0.13;;;0.00;;
12758;SDS011;20944;47.048;15.390;2023-08-07T05:06:19;0.10;;;0.10;;
12758;SDS011;20944;47.048;15.390;2023-08-07T05:08:48;0.20;;;0.13;;
12758;SDS011;20944;47.048;15.390;2023-08-07T05:11:16;0.53;;;0.20;;
12758;SDS011;20944;47.048;15.390;2023-08-07T05:13:44;0.50;;;0.10;;
12758;SDS011;20944;47.048;15.390;2023-08-07T05:16:12;0.20;;;0.13;;
12758;SDS011;20944;47.048;15.390;2023-08-07T05:18:40;0.10;;;0.10;;
12758;SDS011;20944;47.048;15.390;2023-08-07T05:21:10;0.60;;;0.20;;
12758;SDS011;20944;47.048;15.390;2023-08-07T05:23:38;0.20;;;0.20;;
12758;SDS011;20944;47.048;15.390;2023-08-07T05:26:06;0.10;;;0.10;;
12758;SDS011;20944;47.048;15.390;2023-08-07T05:28:34;0.10;;;0.10;;
12758;SDS011;20944;47.048;15.390;2023-08-07T05:31:03;2.23;;;0.10;;
12758;SDS011;20944;47.048;15.390;2023-08-07T05:33:31;0.10;;;0.10;;
12758;SDS011;20944;47.048;15.390;2023-08-07T05:35:59;0.20;;;0.10;;
12758;SDS011;20944;47.048;15.390;2023-08-07T05:38:28;0.10;;;0.10;;
12758;SDS011;20944;47.048;15.390;2023-08-07T05:40:57;0.20;;;0.17;;
12758;SDS011;20944;47.048;15.390;2023-08-07T05:43:25;0.10;;;0.10;;
12758;SDS011;20944;47.048;15.390;2023-08-07T05:45:53;0.10;;;0.10;;
12758;SDS011;20944;47.048;15.390;2023-08-07T05:48:21;0.60;;;0.10;;
12758;SDS011;20944;47.048;15.390;2023-08-07T05:50:50;0.10;;;0.10;;
12758;SDS011;20944;47.048;15.390;2023-08-07T05:53:19;0.10;;;0.10;;
12758;SDS011;20944;47.048;15.390;2023-08-07T05:55:48;4.23;;;0.10;;
12758;SDS011;20944;47.048;15.390;2023-08-07T05:58:17;0.57;;;0.10;;
12758;SDS011;20944;47.048;15.390;2023-08-07T06:00:45;1.90;;;0.10;;
12758;SDS011;20944;47.048;15.390;2023-08-07T06:03:13;0.08;;;0.08;;
12758;SDS011;20944;47.048;15.390;2023-08-07T06:05:42;0.40;;;0.20;;
12758;SDS011;20944;47.048;15.390;2023-08-07T06:08:10;0.00;;;0.00;;
12758;SDS011;20944;47.048;15.390;2023-08-07T06:10:38;0.10;;;0.10;;
12758;SDS011;20944;47.048;15.390;2023-08-07T06:13:08;0.17;;;0.07;;
12758;SDS011;20944;47.048;15.390;2023-08-07T06:15:45;0.10;;;0.10;;
12758;SDS011;20944;47.048;15.390;2023-08-07T06:18:14;0.10;;;0.10;;
12758;SDS011;20944;47.048;15.390;2023-08-07T06:20:42;0.00;;;0.00;;
12758;SDS011;20944;47.048;15.390;2023-08-07T06:23:10;0.00;;;0.00;;
12758;SDS011;20944;47.048;15.390;2023-08-07T06:25:38;0.10;;;0.00;;
12758;SDS011;20944;47.048;15.390;2023-08-07T06:28:08;0.00;;;0.00;;
12758;SDS011;20944;47.048;15.390;2023-08-07T06:30:36;0.00;;;0.00;;
12758;SDS011;20944;47.048;15.390;2023-08-07T06:33:04;0.00;;;0.00;;
12758;SDS011;20944;47.048;15.390;2023-08-07T06:35:37;0.00;;;0.00;;
12758;SDS011;20944;47.048;15.390;2023-08-07T06:38:05;0.00;;;0.00;;
12758;SDS011;20944;47.048;15.390;2023-08-07T06:40:34;0.00;;;0.00;;
12758;SDS011;20944;47.048;15.390;2023-08-07T06:43:03;0.17;;;0.10;;
12758;SDS011;20944;47.048;15.390;2023-08-07T06:45:33;0.40;;;0.20;;
12758;SDS011;20944;47.048;15.390;2023-08-07T06:48:01;0.10;;;0.10;;
12758;SDS011;20944;47.048;15.390;2023-08-07T06:50:29;0.52;;;0.20;;
12758;SDS011;20944;47.048;15.390;2023-08-07T06:52:57;1.02;;;0.30;;
12758;SDS011;20944;47.048;15.390;2023-08-07T06:55:26;0.20;;;0.20;;
12758;SDS011;20944;47.048;15.390;2023-08-07T06:57:54;0.93;;;0.30;;
12758;SDS011;20944;47.048;15.390;2023-08-07T07:00:22;0.70;;;0.22;;
12758;SDS011;20944;47.048;15.390;2023-08-07T07:02:52;1.10;;;0.20;;
12758;SDS011;20944;47.048;15.390;2023-08-07T07:05:20;0.20;;;0.20;;
12758;SDS011;20944;47.048;15.390;2023-08-07T07:07:48;0.38;;;0.30;;
12758;SDS011;20944;47.048;15.390;2023-08-07T07:10:17;0.82;;;0.25;;
12758;SDS011;20944;47.048;15.390;2023-08-07T07:12:45;0.28;;;0.20;;
12758;SDS011;20944;47.048;15.390;2023-08-07T07:15:13;0.40;;;0.20;;
12758;SDS011;20944;47.048;15.390;2023-08-07T07:17:43;0.65;;;0.30;;
12758;SDS011;20944;47.048;15.390;2023-08-07T07:20:12;1.70;;;0.30;;
12758;SDS011;20944;47.048;15.390;2023-08-07T07:22:41;0.30;;;0.20;;
12758;SDS011;20944;47.048;15.390;2023-08-07T07:25:09;0.88;;;0.20;;
12758;SDS011;20944;47.048;15.390;2023-08-07T07:27:38;0.65;;;0.22;;
12758;SDS011;20944;47.048;15.390;2023-08-07T07:30:07;0.20;;;0.20;;
12758;SDS011;20944;47.048;15.390;2023-08-07T07:32:36;0.10;;;0.10;;
12758;SDS011;20944;47.048;15.390;2023-08-07T07:35:04;0.40;;;0.20;;
12758;SDS011;20944;47.048;15.390;2023-08-07T07:37:35;0.10;;;0.10;;
12758;SDS011;20944;47.048;15.390;2023-08-07T07:40:03;0.10;;;0.10;;
12758;SDS011;20944;47.048;15.390;2023-08-07T07:42:32;0.10;;;0.10;;
12758;SDS011;20944;47.048;15.390;2023-08-07T07:45:00;0.10;;;0.10;;
12758;SDS011;20944;47.048;15.390;2023-08-07T07:47:29;0.20;;;0.20;;
12758;SDS011;20944;47.048;15.390;2023-08-07T07:50:04;0.10;;;0.10;;
12758;SDS011;20944;47.048;15.390;2023-08-07T07:52:36;0.10;;;0.10;;
12758;SDS011;20944;47.048;15.390;2023-08-07T07:55:04;0.10;;;0.10;;
12758;SDS011;20944;47.048;15.390;2023-08-07T07:57:35;0.43;;;0.20;;
12758;SDS011;20944;47.048;15.390;2023-08-07T08:00:04;0.20;;;0.20;;
12758;SDS011;20944;47.048;15.390;2023-08-07T08:02:36;0.20;;;0.20;;
12758;SDS011;20944;47.048;15.390;2023-08-07T08:05:08;0.17;;;0.17;;
12758;SDS011;20944;47.048;15.390;2023-08-07T08:07:40;0.20;;;0.20;;
12758;SDS011;20944;47.048;15.390;2023-08-07T08:10:09;0.20;;;0.20;;
12758;SDS011;20944;47.048;15.390;2023-08-07T08:12:37;0.20;;;0.20;;
12758;SDS011;20944;47.048;15.390;2023-08-07T08:15:06;0.20;;;0.20;;
12758;SDS011;20944;47.048;15.390;2023-08-07T08:17:35;0.10;;;0.10;;
12758;SDS011;20944;47.048;15.390;2023-08-07T08:20:03;0.10;;;0.10;;
12758;SDS011;20944;47.048;15.390;2023-08-07T08:22:33;0.10;;;0.10;;
12758;SDS011;20944;47.048;15.390;2023-08-07T08:25:03;0.10;;;0.10;;
12758;SDS011;20944;47.048;15.390;2023-08-07T08:27:32;0.10;;;0.10;;
12758;SDS011;20944;47.048;15.390;2023-08-07T08:30:01;0.10;;;0.10;;
12758;SDS011;20944;47.048;15.390;2023-08-07T08:32:29;0.10;;;0.10;;
12758;SDS011;20944;47.048;15.390;2023-08-07T08:34:58;0.30;;;0.10;;
12758;SDS011;20944;47.048;15.390;2023-08-07T08:37:26;0.10;;;0.10;;
12758;SDS011;20944;47.048;15.390;2023-08-07T08:39:55;0.32;;;0.10;;
12758;SDS011;20944;47.048;15.390;2023-08-07T08:42:25;0.10;;;0.10;;
12758;SDS011;20944;47.048;15.390;2023-08-07T08:44:54;0.10;;;0.10;;
12758;SDS011;20944;47.048;15.390;2023-08-07T08:47:25;0.10;;;0.10;;
12758;SDS011;20944;47.048;15.390;2023-08-07T08:49:54;0.10;;;0.10;;
12758;SDS011;20944;47.048;15.390;2023-08-07T08:52:29;0.10;;;0.10;;
12758;SDS011;20944;47.048;15.390;2023-08-07T08:54:59;0.10;;;0.10;;
12758;SDS011;20944;47.048;15.390;2023-08-07T08:57:30;0.10;;;0.10;;
12758;SDS011;20944;47.048;15.390;2023-08-07T09:00:00;0.10;;;0.10;;
12758;SDS011;20944;47.048;15.390;2023-08-07T09:02:31;0.10;;;0.10;;
12758;SDS011;20944;47.048;15.390;2023-08-07T09:05:00;0.10;;;0.10;;
12758;SDS011;20944;47.048;15.390;2023-08-07T09:07:28;0.10;;;0.10;;
12758;SDS011;20944;47.048;15.390;2023-08-07T09:09:57;0.10;;;0.10;;
12758;SDS011;20944;47.048;15.390;2023-08-07T09:12:26;0.10;;;0.10;;
12758;SDS011;20944;47.048;15.390;2023-08-07T09:14:58;0.10;;;0.10;;
12758;SDS011;20944;47.048;15.390;2023-08-07T09:17:29;0.10;;;0.10;;
12758;SDS011;20944;47.048;15.390;2023-08-07T09:20:01;0.43;;;0.10;;
12758;SDS011;20944;47.048;15.390;2023-08-07T09:22:31;0.10;;;0.10;;
12758;SDS011;20944;47.048;15.390;2023-08-07T09:24:59;0.10;;;0.10;;
12758;SDS011;20944;47.048;15.390;2023-08-07T09:27:27;0.10;;;0.10;;
12758;SDS011;20944;47.048;15.390;2023-08-07T09:29:55;0.10;;;0.10;;
12758;SDS011;20944;47.048;15.390;2023-08-07T09:32:25;0.10;;;0.10;;
12758;SDS011;20944;47.048;15.390;2023-08-07T09:34:54;0.10;;;0.10;;
12758;SDS011;20944;47.048;15.390;2023-08-07T09:37:23;0.10;;;0.10;;
12758;SDS011;20944;47.048;15.390;2023-08-07T09:39:51;0.13;;;0.10;;
12758;SDS011;20944;47.048;15.390;2023-08-07T09:42:19;0.10;;;0.10;;
12758;SDS011;20944;47.048;15.390;2023-08-07T09:44:48;0.10;;;0.10;;
12758;SDS011;20944;47.048;15.390;2023-08-07T09:47:18;0.10;;;0.10;;
12758;SDS011;20944;47.048;15.390;2023-08-07T09:49:47;0.20;;;0.10;;
12758;SDS011;20944;47.048;15.390;2023-08-07T09:52:15;0.20;;;0.20;;
12758;SDS011;20944;47.048;15.390;2023-08-07T09:54:44;0.20;;;0.20;;
12758;SDS011;20944;47.048;15.390;2023-08-07T09:57:12;0.10;;;0.10;;
12758;SDS011;20944;47.048;15.390;2023-08-07T09:59:41;0.10;;;0.10;;
12758;SDS011;20944;47.048;15.390;2023-08-07T10:02:09;0.10;;;0.10;;
12758;SDS011;20944;47.048;15.390;2023-08-07T10:04:40;0.10;;;0.10;;
12758;SDS011;20944;47.048;15.390;2023-08-07T10:07:08;0.10;;;0.10;;
12758;SDS011;20944;47.048;15.390;2023-08-07T10:09:39;0.10;;;0.10;;
12758;SDS011;20944;47.048;15.390;2023-08-07T10:12:08;0.25;;;0.10;;
12758;SDS011;20944;47.048;15.390;2023-08-07T10:14:37;0.10;;;0.10;;
12758;SDS011;20944;47.048;15.390;2023-08-07T10:17:06;0.10;;;0.10;;
12758;SDS011;20944;47.048;15.390;2023-08-07T10:19:35;0.10;;;0.10;;
12758;SDS011;20944;47.048;15.390;2023-08-07T10:22:07;0.10;;;0.10;;
12758;SDS011;20944;47.048;15.390;2023-08-07T10:24:36;0.10;;;0.10;;
12758;SDS011;20944;47.048;15.390;2023-08-07T10:27:09;0.00;;;0.00;;
12758;SDS011;20944;47.048;15.390;2023-08-07T10:29:39;0.10;;;0.10;;
12758;SDS011;20944;47.048;15.390;2023-08-07T10:32:08;0.10;;;0.10;;
12758;SDS011;20944;47.048;15.390;2023-08-07T10:34:38;0.32;;;0.20;;
12758;SDS011;20944;47.048;15.390;2023-08-07T10:37:08;0.10;;;0.10;;
12758;SDS011;20944;47.048;15.390;2023-08-07T10:40:03;0.10;;;0.10;;
12758;SDS011;20944;47.048;15.390;2023-08-07T10:42:33;0.10;;;0.10;;
12758;SDS011;20944;47.048;15.390;2023-08-07T10:45:18;0.10;;;0.10;;
12758;SDS011;20944;47.048;15.390;2023-08-07T10:50:49;0.10;;;0.10;;
12758;SDS011;20944;47.048;15.390;2023-08-07T10:53:20;1.42;;;0.20;;
12758;SDS011;20944;47.048;15.390;2023-08-07T10:55:55;0.10;;;0.10;;
12758;SDS011;20944;47.048;15.390;2023-08-07T10:58:26;0.10;;;0.10;;
12758;SDS011;20944;47.048;15.390;2023-08-07T11:01:16;0.10;;;0.10;;
12758;SDS011;20944;47.048;15.390;2023-08-07T11:03:48;0.08;;;0.08;;
12758;SDS011;20944;47.048;15.390;2023-08-07T11:06:17;0.10;;;0.10;;
12758;SDS011;20944;47.048;15.390;2023-08-07T11:08:47;0.00;;;0.00;;
12758;SDS011;20944;47.048;15.390;2023-08-07T11:11:16;0.10;;;0.10;;
12758;SDS011;20944;47.048;15.390;2023-08-07T11:13:44;0.10;;;0.10;;
12758;SDS011;20944;47.048;15.390;2023-08-07T11:16:12;0.10;;;0.10;;
12758;SDS011;20944;47.048;15.390;2023-08-07T11:18:41;0.10;;;0.10;;
12758;SDS011;20944;47.048;15.390;2023-08-07T11:21:10;0.10;;;0.10;;
12758;SDS011;20944;47.048;15.390;2023-08-07T11:23:39;0.10;;;0.10;;
12758;SDS011;20944;47.048;15.390;2023-08-07T11:26:09;0.10;;;0.10;;
12758;SDS011;20944;47.048;15.390;2023-08-07T11:28:38;0.10;;;0.10;;
12758;SDS011;20944;47.048;15.390;2023-08-07T11:31:06;0.10;;;0.10;;
12758;SDS011;20944;47.048;15.390;2023-08-07T11:33:35;0.15;;;0.15;;
12758;SDS011;20944;47.048;15.390;2023-08-07T11:36:09;0.10;;;0.10;;
12758;SDS011;20944;47.048;15.390;2023-08-07T11:38:38;0.15;;;0.10;;
12758;SDS011;20944;47.048;15.390;2023-08-07T11:41:11;0.10;;;0.10;;
12758;SDS011;20944;47.048;15.390;2023-08-07T11:43:41;0.20;;;0.20;;
12758;SDS011;20944;47.048;15.390;2023-08-07T11:46:10;0.45;;;0.20;;
12758;SDS011;20944;47.048;15.390;2023-08-07T11:48:39;0.10;;;0.10;;
12758;SDS011;20944;47.048;15.390;2023-08-07T11:51:09;0.10;;;0.10;;
12758;SDS011;20944;47.048;15.390;2023-08-07T11:53:38;0.17;;;0.13;;
12758;SDS011;20944;47.048;15.390;2023-08-07T11:56:08;0.10;;;0.10;;
12758;SDS011;20944;47.048;15.390;2023-08-07T11:58:39;0.10;;;0.10;;
12758;SDS011;20944;47.048;15.390;2023-08-07T12:01:09;0.10;;;0.10;;
12758;SDS011;20944;47.048;15.390;2023-08-07T12:03:38;0.20;;;0.20;;
12758;SDS011;20944;47.048;15.390;2023-08-07T12:06:10;0.03;;;0.03;;
12758;SDS011;20944;47.048;15.390;2023-08-07T12:08:39;0.13;;;0.10;;
12758;SDS011;20944;47.048;15.390;2023-08-07T12:11:08;0.20;;;0.20;;
12758;SDS011;20944;47.048;15.390;2023-08-07T12:13:39;0.10;;;0.10;;
12758;SDS011;20944;47.048;15.390;2023-08-07T12:16:08;1.75;;;0.20;;
12758;SDS011;20944;47.048;15.390;2023-08-07T12:18:43;0.20;;;0.20;;
12758;SDS011;20944;47.048;15.390;2023-08-07T12:21:13;0.10;;;0.10;;
12758;SDS011;20944;47.048;15.390;2023-08-07T12:23:43;0.20;;;0.20;;
12758;SDS011;20944;47.048;15.390;2023-08-07T12:26:14;0.10;;;0.10;;
12758;SDS011;20944;47.048;15.390;2023-08-07T12:28:44;0.40;;;0.10;;
12758;SDS011;20944;47.048;15.390;2023-08-07T12:31:12;0.10;;;0.10;;
12758;SDS011;20944;47.048;15.390;2023-08-07T12:33:40;0.10;;;0.10;;
12758;SDS011;20944;47.048;15.390;2023-08-07T12:36:09;0.10;;;0.10;;
12758;SDS011;20944;47.048;15.390;2023-08-07T12:38:40;0.10;;;0.10;;
12758;SDS011;20944;47.048;15.390;2023-08-07T12:41:08;0.10;;;0.10;;
12758;SDS011;20944;47.048;15.390;2023-08-07T12:43:40;0.10;;;0.10;;
12758;SDS011;20944;47.048;15.390;2023-08-07T12:46:10;0.20;;;0.10;;
12758;SDS011;20944;47.048;15.390;2023-08-07T12:48:41;0.20;;;0.20;;
12758;SDS011;20944;47.048;15.390;2023-08-07T12:51:09;0.10;;;0.10;;
12758;SDS011;20944;47.048;15.390;2023-08-07T12:53:37;0.20;;;0.20;;
12758;SDS011;20944;47.048;15.390;2023-08-07T12:56:05;0.10;;;0.10;;
12758;SDS011;20944;47.048;15.390;2023-08-07T12:58:33;0.20;;;0.20;;
12758;SDS011;20944;47.048;15.390;2023-08-07T13:01:02;0.28;;;0.10;;
12758;SDS011;20944;47.048;15.390;2023-08-07T13:03:31;0.85;;;0.20;;
12758;SDS011;20944;47.048;15.390;2023-08-07T13:06:00;0.13;;;0.13;;
12758;SDS011;20944;47.048;15.390;2023-08-07T13:08:32;0.17;;;0.17;;
12758;SDS011;20944;47.048;15.390;2023-08-07T13:11:01;0.20;;;0.20;;
12758;SDS011;20944;47.048;15.390;2023-08-07T13:13:29;0.10;;;0.10;;
12758;SDS011;20944;47.048;15.390;2023-08-07T13:15:58;0.20;;;0.20;;
12758;SDS011;20944;47.048;15.390;2023-08-07T13:18:26;0.43;;;0.20;;
12758;SDS011;20944;47.048;15.390;2023-08-07T13:20:56;0.10;;;0.10;;
12758;SDS011;20944;47.048;15.390;2023-08-07T13:23:24;0.10;;;0.10;;
12758;SDS011;20944;47.048;15.390;2023-08-07T13:25:52;0.10;;;0.10;;
12758;SDS011;20944;47.048;15.390;2023-08-07T13:28:21;0.10;;;0.10;;
12758;SDS011;20944;47.048;15.390;2023-08-07T13:30:50;0.10;;;0.10;;
12758;SDS011;20944;47.048;15.390;2023-08-07T13:33:20;0.32;;;0.10;;
12758;SDS011;20944;47.048;15.390;2023-08-07T13:35:48;0.20;;;0.20;;
12758;SDS011;20944;47.048;15.390;2023-08-07T13:38:18;0.20;;;0.20;;
12758;SDS011;20944;47.048;15.390;2023-08-07T13:40:46;0.10;;;0.10;;
12758;SDS011;20944;47.048;15.390;2023-08-07T13:43:15;0.82;;;0.20;;
12758;SDS011;20944;47.048;15.390;2023-08-07T13:45:43;0.20;;;0.20;;
12758;SDS011;20944;47.048;15.390;2023-08-07T13:48:12;0.32;;;0.22;;
12758;SDS011;20944;47.048;15.390;2023-08-07T13:50:40;0.10;;;0.10;;
12758;SDS011;20944;47.048;15.390;2023-08-07T13:53:09;0.20;;;0.20;;
12758;SDS011;20944;47.048;15.390;2023-08-07T13:55:43;0.17;;;0.17;;
12758;SDS011;20944;47.048;15.390;2023-08-07T13:58:11;2.72;;;0.30;;
12758;SDS011;20944;47.048;15.390;2023-08-07T14:00:42;0.20;;;0.20;;
12758;SDS011;20944;47.048;15.390;2023-08-07T14:03:10;0.10;;;0.10;;
12758;SDS011;20944;47.048;15.390;2023-08-07T14:05:40;0.20;;;0.20;;
12758;SDS011;20944;47.048;15.390;2023-08-07T14:08:08;0.20;;;0.20;;
12758;SDS011;20944;47.048;15.390;2023-08-07T14:10:37;0.15;;;0.15;;
12758;SDS011;20944;47.048;15.390;2023-08-07T14:13:09;0.10;;;0.10;;
12758;SDS011;20944;47.048;15.390;2023-08-07T14:15:38;0.38;;;0.17;;
12758;SDS011;20944;47.048;15.390;2023-08-07T14:18:07;0.10;;;0.10;;
12758;SDS011;20944;47.048;15.390;2023-08-07T14:20:35;0.20;;;0.20;;
12758;SDS011;20944;47.048;15.390;2023-08-07T14:23:21;0.52;;;0.30;;
12758;SDS011;20944;47.048;15.390;2023-08-07T14:25:50;0.20;;;0.20;;
12758;SDS011;20944;47.048;15.390;2023-08-07T14:28:20;0.30;;;0.30;;
12758;SDS011;20944;47.048;15.390;2023-08-07T14:30:49;0.20;;;0.20;;
12758;SDS011;20944;47.048;15.390;2023-08-07T14:33:17;0.30;;;0.20;;
12758;SDS011;20944;47.048;15.390;2023-08-07T14:35:45;0.20;;;0.20;;
12758;SDS011;20944;47.048;15.390;2023-08-07T14:38:14;0.38;;;0.30;;
12758;SDS011;20944;47.048;15.390;2023-08-07T14:40:42;0.28;;;0.28;;
12758;SDS011;20944;47.048;15.390;2023-08-07T14:43:10;0.20;;;0.20;;
12758;SDS011;20944;47.048;15.390;2023-08-07T14:45:40;0.30;;;0.30;;
12758;SDS011;20944;47.048;15.390;2023-08-07T14:48:08;0.20;;;0.20;;